Time;durP1;ratioP1;P1;durP2;ratioP2;P2;SDS_P1;SDS_P2;PMS_P1;PMS_P2;Temp;Humidity;BMP_temperature;BMP_pressure;BME280_temperature;BME280_humidity;BME280_pressure;Samples;Min_cycle;Max_cycle;Signal;HPM_P1;HPM_P2
2022/12/09 00:00:26;;;;;;;15.80;8.77;;;;;;;;;;5046483;28;20148;-59
2022/12/09 00:02:51;;;;;;;12.95;6.88;;;;;;;;;;5042246;28;20163;-58
2022/12/09 00:05:16;;;;;;;11.30;6.50;;;;;;;;;;5054093;28;20371;-61
2022/12/09 00:07:42;;;;;;;16.05;9.68;;;;;;;;;;5042040;28;20029;-60
2022/12/09 00:10:07;;;;;;;13.55;8.93;;;;;;;;;;5043723;28;20017;-60
2022/12/09 00:12:33;;;;;;;16.67;9.45;;;;;;;;;;5048977;28;20091;-58
2022/12/09 00:14:58;;;;;;;13.93;8.13;;;;;;;;;;5045505;28;20036;-60
2022/12/09 00:17:23;;;;;;;15.35;8.55;;;;;;;;;;5049370;28;20021;-59
2022/12/09 00:19:49;;;;;;;15.23;7.97;;;;;;;;;;5046184;28;20029;-57
2022/12/09 00:22:14;;;;;;;15.40;7.88;;;;;;;;;;5042272;28;20025;-59
2022/12/09 00:24:39;;;;;;;14.60;8.55;;;;;;;;;;5050441;28;20040;-55
2022/12/09 00:27:04;;;;;;;15.70;8.35;;;;;;;;;;5045478;28;20510;-61
2022/12/09 00:29:30;;;;;;;16.90;7.95;;;;;;;;;;5052530;28;20602;-57
2022/12/09 00:31:55;;;;;;;11.82;6.60;;;;;;;;;;5045827;28;20024;-59
2022/12/09 00:34:20;;;;;;;11.98;6.35;;;;;;;;;;5032477;28;20958;-58
2022/12/09 00:36:46;;;;;;;12.02;6.28;;;;;;;;;;5051011;28;20158;-58
2022/12/09 00:39:11;;;;;;;10.82;6.18;;;;;;;;;;5045815;28;20033;-60
2022/12/09 00:41:37;;;;;;;9.68;5.72;;;;;;;;;;5050353;28;20035;-57
2022/12/09 00:44:02;;;;;;;9.77;5.40;;;;;;;;;;5042649;28;20116;-58
2022/12/09 00:46:28;;;;;;;14.60;7.85;;;;;;;;;;5043876;28;20033;-56
2022/12/09 00:48:53;;;;;;;13.93;7.57;;;;;;;;;;5051057;28;20029;-59
2022/12/09 00:51:20;;;;;;;14.13;6.95;;;;;;;;;;5041914;28;20025;-57
2022/12/09 00:53:46;;;;;;;11.52;6.40;;;;;;;;;;5052447;28;20494;-58
2022/12/09 00:56:11;;;;;;;9.90;6.05;;;;;;;;;;5046950;28;20067;-59
2022/12/09 00:58:37;;;;;;;9.90;5.43;;;;;;;;;;5047621;28;20052;-55
2022/12/09 01:01:02;;;;;;;10.60;6.15;;;;;;;;;;5046324;28;20071;-57
2022/12/09 01:03:27;;;;;;;9.75;5.47;;;;;;;;;;5030120;28;20478;-59
2022/12/09 01:05:53;;;;;;;8.90;5.78;;;;;;;;;;5050418;28;20036;-58
2022/12/09 01:08:18;;;;;;;9.95;5.28;;;;;;;;;;5048520;28;20026;-57
2022/12/09 01:10:44;;;;;;;9.35;5.07;;;;;;;;;;5043864;28;20063;-58
2022/12/09 01:13:10;;;;;;;10.20;5.20;;;;;;;;;;5050464;28;20041;-59
2022/12/09 01:15:36;;;;;;;11.27;5.20;;;;;;;;;;5045158;28;20036;-58
2022/12/09 01:18:02;;;;;;;8.80;5.32;;;;;;;;;;5046799;28;20029;-59
2022/12/09 01:20:27;;;;;;;8.00;5.18;;;;;;;;;;5044650;28;20056;-60
2022/12/09 01:22:52;;;;;;;8.90;5.45;;;;;;;;;;5043286;28;20039;-57
2022/12/09 01:25:18;;;;;;;10.40;4.95;;;;;;;;;;5050331;28;20115;-58
2022/12/09 01:27:43;;;;;;;8.23;4.90;;;;;;;;;;5030835;28;20702;-58
2022/12/09 01:30:10;;;;;;;10.10;5.75;;;;;;;;;;5050540;28;20390;-57
2022/12/09 01:32:35;;;;;;;9.95;5.28;;;;;;;;;;5045015;28;20036;-57
2022/12/09 01:35:01;;;;;;;11.18;5.75;;;;;;;;;;5042316;28;20584;-59
2022/12/09 01:37:27;;;;;;;8.88;5.25;;;;;;;;;;5046836;28;20044;-60
2022/12/09 01:39:52;;;;;;;10.40;5.40;;;;;;;;;;5044004;28;20028;-58
2022/12/09 01:42:21;;;;;;;14.15;6.25;;;;;;;;;;5050554;28;20062;-58
2022/12/09 01:45:07;;;;;;;10.82;5.75;;;;;;;;;;5043402;28;20035;-57
2022/12/09 01:47:32;;;;;;;11.65;5.72;;;;;;;;;;5052933;28;20074;-58
2022/12/09 01:49:57;;;;;;;10.85;5.78;;;;;;;;;;5054004;28;20033;-58
2022/12/09 01:52:23;;;;;;;10.30;5.50;;;;;;;;;;5045753;28;20078;-58
2022/12/09 01:54:50;;;;;;;11.77;6.00;;;;;;;;;;5049955;28;20124;-58
2022/12/09 01:57:16;;;;;;;10.00;5.70;;;;;;;;;;5044595;28;20627;-58
2022/12/09 01:59:42;;;;;;;10.13;5.80;;;;;;;;;;5028803;28;20033;-58
2022/12/09 02:02:08;;;;;;;9.43;5.53;;;;;;;;;;5045579;28;20024;-57
2022/12/09 02:04:36;;;;;;;10.55;5.05;;;;;;;;;;5045189;28;20044;-58
2022/12/09 02:07:04;;;;;;;9.38;5.95;;;;;;;;;;5050304;28;20021;-60
2022/12/09 02:09:29;;;;;;;10.63;5.55;;;;;;;;;;5051234;28;20585;-57
2022/12/09 02:11:56;;;;;;;8.60;4.70;;;;;;;;;;5029057;28;20052;-57
2022/12/09 02:14:28;;;;;;;10.30;5.47;;;;;;;;;;5048937;28;20036;-59
2022/12/09 02:17:14;;;;;;;8.90;5.22;;;;;;;;;;5043353;28;20025;-57
2022/12/09 02:19:46;;;;;;;10.05;5.72;;;;;;;;;;5044732;28;20028;-60
2022/12/09 02:22:14;;;;;;;11.23;6.18;;;;;;;;;;5049258;28;20032;-59
2022/12/09 02:24:42;;;;;;;10.73;6.07;;;;;;;;;;5043931;28;20087;-59
2022/12/09 02:27:14;;;;;;;9.52;5.90;;;;;;;;;;5051987;28;20031;-60
2022/12/09 02:29:47;;;;;;;11.80;6.32;;;;;;;;;;5054338;28;20889;-61
2022/12/09 02:32:13;;;;;;;9.35;5.50;;;;;;;;;;5049965;28;20033;-59
2022/12/09 02:34:40;;;;;;;10.60;6.20;;;;;;;;;;5050161;28;20039;-56
2022/12/09 02:37:15;;;;;;;14.55;6.50;;;;;;;;;;5028194;28;20401;-58
2022/12/09 02:39:43;;;;;;;;;;;;;;;;;;5048797;28;20052;-59
2022/12/09 02:42:12;;;;;;;15.70;7.95;;;;;;;;;;5052386;28;19912;-59
2022/12/09 02:44:38;;;;;;;14.20;7.07;;;;;;;;;;5049568;28;20127;-59
2022/12/09 02:47:06;;;;;;;14.15;7.63;;;;;;;;;;5051236;28;20526;-57
2022/12/09 02:49:33;;;;;;;16.73;7.97;;;;;;;;;;5047163;28;20028;-55
2022/12/09 02:52:00;;;;;;;17.90;8.20;;;;;;;;;;5047886;28;20065;-57
2022/12/09 02:54:27;;;;;;;15.90;7.65;;;;;;;;;;5055361;28;20033;-57
2022/12/09 02:56:54;;;;;;;16.15;8.02;;;;;;;;;;5045680;28;20036;-59
2022/12/09 02:59:21;;;;;;;16.58;8.00;;;;;;;;;;5051716;28;20042;-57
2022/12/09 03:01:55;;;;;;;15.55;7.68;;;;;;;;;;5048468;28;20036;-58
2022/12/09 03:04:22;;;;;;;11.85;7.22;;;;;;;;;;5046431;28;20037;-61
2022/12/09 03:06:52;;;;;;;11.20;6.35;;;;;;;;;;5052270;28;20024;-57
2022/12/09 03:09:29;;;;;;;13.02;7.60;;;;;;;;;;5044672;28;20020;-57
2022/12/09 03:11:58;;;;;;;11.55;7.15;;;;;;;;;;5047010;28;20025;-59
2022/12/09 03:14:27;;;;;;;18.50;7.72;;;;;;;;;;5054412;28;20136;-60
2022/12/09 03:16:58;;;;;;;13.80;7.05;;;;;;;;;;5061488;28;20052;-60
2022/12/09 03:19:26;;;;;;;14.23;6.88;;;;;;;;;;5054390;28;20233;-57
2022/12/09 03:21:55;;;;;;;13.90;7.00;;;;;;;;;;5045579;28;20033;-57
2022/12/09 03:24:23;;;;;;;15.02;7.82;;;;;;;;;;5051309;28;20036;-60
2022/12/09 03:26:49;;;;;;;14.75;7.35;;;;;;;;;;5053642;28;20033;-58
2022/12/09 03:29:16;;;;;;;13.88;7.97;;;;;;;;;;5046394;28;20084;-57
2022/12/09 03:31:42;;;;;;;13.98;7.45;;;;;;;;;;5052946;28;20037;-60
2022/12/09 03:34:09;;;;;;;16.67;7.82;;;;;;;;;;5049844;28;20028;-58
2022/12/09 03:36:37;;;;;;;13.75;7.80;;;;;;;;;;5046172;28;20078;-57
2022/12/09 03:39:04;;;;;;;15.82;7.35;;;;;;;;;;5052352;28;20036;-59
2022/12/09 03:41:30;;;;;;;;;;;;;;;;;;5048569;28;20490;-57
2022/12/09 03:44:01;;;;;;;14.00;6.70;;;;;;;;;;5045076;28;19927;-57
2022/12/09 03:46:27;;;;;;;12.00;7.00;;;;;;;;;;5050247;28;20308;-56
2022/12/09 03:48:52;;;;;;;13.07;6.78;;;;;;;;;;5045461;28;20107;-58
2022/12/09 03:51:23;;;;;;;11.15;6.55;;;;;;;;;;5055999;28;20086;-57
2022/12/09 03:53:58;;;;;;;15.85;6.57;;;;;;;;;;5046011;28;20041;-57
2022/12/09 03:56:30;;;;;;;15.00;6.88;;;;;;;;;;5044341;28;20115;-58
2022/12/09 03:58:57;;;;;;;12.43;7.03;;;;;;;;;;5053007;28;20102;-58
2022/12/09 04:01:24;;;;;;;16.38;7.40;;;;;;;;;;5043575;28;20110;-58
2022/12/09 04:03:51;;;;;;;17.23;8.03;;;;;;;;;;5050782;28;20075;-57
2022/12/09 04:06:16;;;;;;;12.77;7.07;;;;;;;;;;5046430;28;20083;-56
2022/12/09 04:08:42;;;;;;;14.63;7.78;;;;;;;;;;5045573;28;20040;-58
2022/12/09 04:11:07;;;;;;;16.65;8.10;;;;;;;;;;5051969;28;20041;-57
2022/12/09 04:13:32;;;;;;;15.52;7.97;;;;;;;;;;5045712;28;20087;-57
2022/12/09 04:15:58;;;;;;;16.55;8.13;;;;;;;;;;5051379;28;20036;-55
2022/12/09 04:18:23;;;;;;;19.35;8.43;;;;;;;;;;5043648;28;20654;-57
2022/12/09 04:20:48;;;;;;;18.05;8.35;;;;;;;;;;5047380;28;20029;-57
2022/12/09 04:23:14;;;;;;;18.63;8.77;;;;;;;;;;5052895;28;20068;-56
2022/12/09 04:25:39;;;;;;;17.77;8.55;;;;;;;;;;5045332;28;20025;-58
2022/12/09 04:28:04;;;;;;;15.88;8.85;;;;;;;;;;5049002;28;20029;-58
2022/12/09 04:30:29;;;;;;;17.98;10.65;;;;;;;;;;5042716;28;20067;-59
2022/12/09 04:32:55;;;;;;;17.40;9.00;;;;;;;;;;5048290;28;20033;-58
2022/12/09 04:35:21;;;;;;;16.95;8.23;;;;;;;;;;5048492;28;20032;-58
2022/12/09 04:37:46;;;;;;;17.67;9.75;;;;;;;;;;5047612;28;20037;-58
2022/12/09 04:40:12;;;;;;;21.48;11.15;;;;;;;;;;5055171;28;20044;-58
2022/12/09 04:42:38;;;;;;;18.50;10.25;;;;;;;;;;5042889;28;20040;-57
2022/12/09 04:45:03;;;;;;;19.88;11.05;;;;;;;;;;5049304;28;20526;-57
2022/12/09 04:47:29;;;;;;;18.88;9.90;;;;;;;;;;5052944;28;20545;-57
2022/12/09 04:49:54;;;;;;;19.58;10.32;;;;;;;;;;5046493;28;20044;-56
2022/12/09 04:52:19;;;;;;;17.73;9.40;;;;;;;;;;5050624;28;20790;-60
2022/12/09 04:54:45;;;;;;;20.10;10.55;;;;;;;;;;5046329;28;20079;-58
2022/12/09 04:57:10;;;;;;;19.02;10.23;;;;;;;;;;5044937;28;20035;-56
2022/12/09 04:59:36;;;;;;;60.20;14.30;;;;;;;;;;5051770;28;20021;-59
2022/12/09 05:02:02;;;;;;;22.50;10.75;;;;;;;;;;5045534;28;20078;-57
2022/12/09 05:04:27;;;;;;;24.67;11.48;;;;;;;;;;5044868;28;20058;-60
2022/12/09 05:06:52;;;;;;;21.05;10.43;;;;;;;;;;5048826;28;20078;-58
2022/12/09 05:09:18;;;;;;;21.80;11.98;;;;;;;;;;5043941;28;20715;-57
2022/12/09 05:11:43;;;;;;;20.30;11.30;;;;;;;;;;5048371;28;20154;-58
2022/12/09 05:14:08;;;;;;;26.55;13.23;;;;;;;;;;5046778;28;20090;-57
2022/12/09 05:16:33;;;;;;;26.50;12.82;;;;;;;;;;5045145;28;20450;-59
2022/12/09 05:18:59;;;;;;;24.45;13.20;;;;;;;;;;5048473;28;20940;-57
2022/12/09 05:21:24;;;;;;;24.55;12.93;;;;;;;;;;5045109;28;20028;-56
2022/12/09 05:23:50;;;;;;;26.38;13.98;;;;;;;;;;5052433;28;20120;-57
2022/12/09 05:26:17;;;;;;;34.47;16.15;;;;;;;;;;5044082;28;20024;-60
2022/12/09 05:28:42;;;;;;;29.73;14.52;;;;;;;;;;5046187;28;20090;-59
2022/12/09 05:31:16;;;;;;;28.27;14.23;;;;;;;;;;5050568;28;20025;-57
2022/12/09 05:33:42;;;;;;;27.30;13.70;;;;;;;;;;5044219;28;20521;-57
2022/12/09 05:36:09;;;;;;;31.02;14.68;;;;;;;;;;5045201;28;20127;-58
2022/12/09 05:38:34;;;;;;;26.45;14.07;;;;;;;;;;5046741;28;20036;-57
2022/12/09 05:40:59;;;;;;;28.27;14.90;;;;;;;;;;5042992;28;20036;-57
2022/12/09 05:43:25;;;;;;;28.73;13.90;;;;;;;;;;5048681;28;20037;-56
2022/12/09 05:45:50;;;;;;;31.17;14.85;;;;;;;;;;5046676;28;20042;-58
2022/12/09 05:48:15;;;;;;;29.25;14.02;;;;;;;;;;5047795;28;20025;-59
2022/12/09 05:50:40;;;;;;;33.13;17.15;;;;;;;;;;5025897;28;20032;-57
2022/12/09 05:53:06;;;;;;;31.15;14.70;;;;;;;;;;5043512;28;20048;-58
2022/12/09 05:55:31;;;;;;;25.88;14.32;;;;;;;;;;5046262;28;20115;-57
2022/12/09 05:57:56;;;;;;;25.13;14.00;;;;;;;;;;5042468;28;20052;-57
2022/12/09 06:00:22;;;;;;;27.48;14.13;;;;;;;;;;5050456;28;20505;-58
2022/12/09 06:02:47;;;;;;;27.48;14.85;;;;;;;;;;5045336;28;20056;-57
2022/12/09 06:05:13;;;;;;;36.22;17.00;;;;;;;;;;5043332;28;20044;-57
2022/12/09 06:07:38;;;;;;;31.15;15.73;;;;;;;;;;5049095;28;20017;-57
2022/12/09 06:10:03;;;;;;;34.33;16.08;;;;;;;;;;5041243;28;20048;-58
2022/12/09 06:12:29;;;;;;;29.35;14.80;;;;;;;;;;5049383;28;20032;-57
2022/12/09 06:14:54;;;;;;;32.30;15.27;;;;;;;;;;5041613;28;20574;-57
2022/12/09 06:17:19;;;;;;;34.75;16.42;;;;;;;;;;5046936;28;20029;-56
2022/12/09 06:19:45;;;;;;;33.38;16.65;;;;;;;;;;5053245;28;20150;-58
2022/12/09 06:22:10;;;;;;;33.72;17.25;;;;;;;;;;5047409;28;20043;-58
2022/12/09 06:24:35;;;;;;;47.03;23.10;;;;;;;;;;5052293;28;20479;-58
2022/12/09 06:27:01;;;;;;;49.00;22.02;;;;;;;;;;5034948;28;20424;-59
2022/12/09 06:29:26;;;;;;;35.40;18.25;;;;;;;;;;5049035;28;20289;-57
2022/12/09 06:31:51;;;;;;;31.13;17.08;;;;;;;;;;5051152;28;20036;-57
2022/12/09 06:34:17;;;;;;;29.33;16.50;;;;;;;;;;5043739;28;20481;-59
2022/12/09 06:36:42;;;;;;;30.70;17.77;;;;;;;;;;5054710;28;20813;-58
2022/12/09 06:39:08;;;;;;;40.20;19.48;;;;;;;;;;5046530;28;20036;-58
2022/12/09 06:41:33;;;;;;;35.88;17.67;;;;;;;;;;5049638;28;21530;-60
2022/12/09 06:43:58;;;;;;;39.80;19.00;;;;;;;;;;5057739;28;20043;-56
2022/12/09 06:46:24;;;;;;;44.28;19.65;;;;;;;;;;5053315;28;20036;-57
2022/12/09 06:48:50;;;;;;;43.85;20.70;;;;;;;;;;5054390;28;20131;-57
2022/12/09 06:51:16;;;;;;;37.25;18.52;;;;;;;;;;5046149;28;20032;-57
2022/12/09 06:53:42;;;;;;;43.53;19.85;;;;;;;;;;5045355;28;20074;-57
2022/12/09 06:56:08;;;;;;;41.05;19.98;;;;;;;;;;5054791;28;20025;-58
2022/12/09 06:58:34;;;;;;;38.75;19.45;;;;;;;;;;5047003;28;20066;-59
2022/12/09 07:01:07;;;;;;;41.50;20.15;;;;;;;;;;5053028;28;20923;-61
2022/12/09 07:03:32;;;;;;;41.15;19.75;;;;;;;;;;5048157;28;20045;-61
2022/12/09 07:05:58;;;;;;;43.85;20.08;;;;;;;;;;5051528;28;20037;-57
2022/12/09 07:08:23;;;;;;;42.97;20.98;;;;;;;;;;5053358;28;20041;-57
2022/12/09 07:10:48;;;;;;;41.53;20.05;;;;;;;;;;5049888;28;20053;-57
2022/12/09 07:13:14;;;;;;;41.92;20.13;;;;;;;;;;5046947;28;20117;-58
2022/12/09 07:15:39;;;;;;;43.35;20.35;;;;;;;;;;5044443;28;20067;-56
2022/12/09 07:18:06;;;;;;;41.45;20.98;;;;;;;;;;5045122;28;20033;-58
2022/12/09 07:20:31;;;;;;;37.57;19.90;;;;;;;;;;5052259;28;20029;-57
2022/12/09 07:22:56;;;;;;;36.55;19.58;;;;;;;;;;5046945;28;20041;-59
2022/12/09 07:25:22;;;;;;;39.70;19.70;;;;;;;;;;5053061;28;20045;-59
2022/12/09 07:27:47;;;;;;;35.22;18.65;;;;;;;;;;5045032;28;20054;-60
2022/12/09 07:30:12;;;;;;;38.72;20.38;;;;;;;;;;5048596;28;20149;-59
2022/12/09 07:32:38;;;;;;;41.25;20.73;;;;;;;;;;5045697;28;20033;-58
2022/12/09 07:35:03;;;;;;;38.42;19.90;;;;;;;;;;5043580;28;20663;-58
2022/12/09 07:37:28;;;;;;;35.08;18.73;;;;;;;;;;5047855;28;20130;-58
2022/12/09 07:39:54;;;;;;;41.05;19.80;;;;;;;;;;5043981;28;20028;-59
2022/12/09 07:42:19;;;;;;;35.08;18.88;;;;;;;;;;5043725;28;20675;-57
2022/12/09 07:44:51;;;;;;;39.00;20.38;;;;;;;;;;5046753;28;20120;-59
2022/12/09 07:47:16;;;;;;;37.33;19.42;;;;;;;;;;5042961;28;20490;-59
2022/12/09 07:49:42;;;;;;;42.53;20.90;;;;;;;;;;5049063;28;20025;-59
2022/12/09 07:52:07;;;;;;;41.40;19.75;;;;;;;;;;5044475;28;20025;-61
2022/12/09 07:54:32;;;;;;;38.38;20.58;;;;;;;;;;5037925;28;20033;-59
2022/12/09 07:56:58;;;;;;;37.05;20.48;;;;;;;;;;5046976;28;20021;-60
2022/12/09 07:59:23;;;;;;;38.33;21.27;;;;;;;;;;5036010;28;20546;-57
2022/12/09 08:01:48;;;;;;;40.42;21.08;;;;;;;;;;5048100;28;20033;-59
2022/12/09 08:04:14;;;;;;;40.40;22.02;;;;;;;;;;5041667;28;20041;-58
2022/12/09 08:06:39;;;;;;;40.15;21.25;;;;;;;;;;5043517;28;20044;-58
2022/12/09 08:09:05;;;;;;;36.40;20.83;;;;;;;;;;5050564;28;20040;-60
2022/12/09 08:11:31;;;;;;;42.50;21.27;;;;;;;;;;5048385;28;20035;-59
2022/12/09 08:13:58;;;;;;;41.20;20.90;;;;;;;;;;5047804;28;20032;-58
2022/12/09 08:16:23;;;;;;;37.92;20.23;;;;;;;;;;5030527;28;20452;-58
2022/12/09 08:18:49;;;;;;;34.35;17.48;;;;;;;;;;5047196;28;20541;-59
2022/12/09 08:21:16;;;;;;;38.80;20.52;;;;;;;;;;5046877;28;20064;-59
2022/12/09 08:23:42;;;;;;;42.90;22.20;;;;;;;;;;5052804;28;20068;-59
2022/12/09 08:26:08;;;;;;;36.17;19.52;;;;;;;;;;5053967;28;20060;-61
2022/12/09 08:28:33;;;;;;;38.33;20.65;;;;;;;;;;5056779;28;20079;-58
2022/12/09 08:31:04;;;;;;;39.85;20.77;;;;;;;;;;5047308;28;20460;-59
2022/12/09 08:33:31;;;;;;;32.50;19.02;;;;;;;;;;5052932;28;20037;-59
2022/12/09 08:35:56;;;;;;;37.55;19.95;;;;;;;;;;5046233;28;20104;-59
2022/12/09 08:38:22;;;;;;;36.15;20.08;;;;;;;;;;5047613;28;20032;-59
2022/12/09 08:40:47;;;;;;;36.58;19.58;;;;;;;;;;5049950;28;20020;-59
2022/12/09 08:43:13;;;;;;;36.35;18.45;;;;;;;;;;5047289;28;20059;-60
2022/12/09 08:45:39;;;;;;;34.03;17.67;;;;;;;;;;5053774;28;20038;-57
2022/12/09 08:48:05;;;;;;;30.70;17.30;;;;;;;;;;5051113;28;20040;-59
2022/12/09 08:50:31;;;;;;;33.33;18.65;;;;;;;;;;5049395;28;20036;-58
2022/12/09 08:52:56;;;;;;;29.77;17.38;;;;;;;;;;5053005;28;20390;-57
2022/12/09 08:55:21;;;;;;;40.88;20.67;;;;;;;;;;5045946;28;20680;-58
2022/12/09 08:57:47;;;;;;;36.72;18.38;;;;;;;;;;5056860;28;20037;-59
2022/12/09 09:00:12;;;;;;;32.33;18.60;;;;;;;;;;5048799;28;20392;-59
2022/12/09 09:02:38;;;;;;;30.20;17.25;;;;;;;;;;5048923;28;20512;-58
2022/12/09 09:05:03;;;;;;;29.00;16.73;;;;;;;;;;5053456;28;20041;-59
2022/12/09 09:07:29;;;;;;;30.30;16.60;;;;;;;;;;5045007;28;20718;-59
2022/12/09 09:09:54;;;;;;;32.95;18.63;;;;;;;;;;5054176;28;20093;-60
2022/12/09 09:12:19;;;;;;;36.35;18.98;;;;;;;;;;5041816;28;20055;-60
2022/12/09 09:14:45;;;;;;;31.35;17.90;;;;;;;;;;5045305;28;20475;-58
2022/12/09 09:17:10;;;;;;;32.03;17.38;;;;;;;;;;5050744;28;20028;-58
2022/12/09 09:19:35;;;;;;;33.92;17.70;;;;;;;;;;5044392;28;20029;-59
2022/12/09 09:22:00;;;;;;;38.47;20.35;;;;;;;;;;5050421;28;20039;-58
2022/12/09 09:24:26;;;;;;;32.80;18.48;;;;;;;;;;5044965;28;20044;-59
2022/12/09 09:26:52;;;;;;;35.05;19.75;;;;;;;;;;5044626;28;20032;-58
2022/12/09 09:29:18;;;;;;;36.05;20.77;;;;;;;;;;5052686;28;20052;-58
2022/12/09 09:31:46;;;;;;;35.95;19.52;;;;;;;;;;5043531;28;20103;-58
2022/12/09 09:34:12;;;;;;;32.53;19.13;;;;;;;;;;5049417;28;20163;-59
2022/12/09 09:36:38;;;;;;;40.78;21.50;;;;;;;;;;5045646;28;20711;-59
2022/12/09 09:39:03;;;;;;;36.10;19.67;;;;;;;;;;5044699;28;20419;-59
2022/12/09 09:41:47;;;;;;;36.30;18.70;;;;;;;;;;5049114;28;20033;-58
2022/12/09 09:44:19;;;;;;;33.15;17.73;;;;;;;;;;5044436;28;20040;-59
2022/12/09 09:46:46;;;;;;;35.28;19.20;;;;;;;;;;5045847;28;20513;-62
2022/12/09 09:49:21;;;;;;;31.98;17.70;;;;;;;;;;5046981;28;20062;-59
2022/12/09 09:51:46;;;;;;;31.40;17.30;;;;;;;;;;5045492;28;20106;-59
2022/12/09 09:54:12;;;;;;;33.30;19.00;;;;;;;;;;5051713;28;20032;-60
2022/12/09 09:56:42;;;;;;;33.05;18.70;;;;;;;;;;5046758;28;20035;-59
2022/12/09 09:59:16;;;;;;;43.00;20.92;;;;;;;;;;5043276;28;20033;-59
2022/12/09 10:01:43;;;;;;;43.05;20.67;;;;;;;;;;5053308;28;20044;-59
2022/12/09 10:04:12;;;;;;;36.03;18.70;;;;;;;;;;5043547;28;20123;-59
2022/12/09 10:06:45;;;;;;;32.35;17.05;;;;;;;;;;5051546;28;20548;-59
2022/12/09 10:09:23;;;;;;;34.13;18.38;;;;;;;;;;5048374;28;20056;-59
2022/12/09 10:11:51;;;;;;;31.38;18.52;;;;;;;;;;5048330;28;20033;-59
2022/12/09 10:14:36;;;;;;;29.95;17.42;;;;;;;;;;5047438;28;20063;-59
2022/12/09 10:17:04;;;;;;;29.98;16.80;;;;;;;;;;5046039;28;20031;-59
2022/12/09 10:19:37;;;;;;;32.35;17.15;;;;;;;;;;5045337;28;20025;-59
2022/12/09 10:22:12;;;;;;;31.35;17.13;;;;;;;;;;5050337;28;20673;-59
2022/12/09 10:24:41;;;;;;;31.15;16.30;;;;;;;;;;5047355;28;20097;-60
2022/12/09 10:27:06;;;;;;;37.75;18.65;;;;;;;;;;5051568;28;20730;-61
2022/12/09 10:29:32;;;;;;;37.38;18.73;;;;;;;;;;5047805;28;20036;-58
2022/12/09 10:31:57;;;;;;;33.28;17.90;;;;;;;;;;5052342;28;20025;-59
2022/12/09 10:34:22;;;;;;;32.63;17.25;;;;;;;;;;5053721;28;20041;-59
2022/12/09 10:36:48;;;;;;;31.40;17.15;;;;;;;;;;5046113;28;20036;-59
2022/12/09 10:39:17;;;;;;;36.63;18.75;;;;;;;;;;5047597;28;20033;-60
2022/12/09 10:44:32;;;;;;;35.78;17.40;;;;;;;;;;5043407;28;20041;-58
2022/12/09 10:47:05;;;;;;;34.50;18.50;;;;;;;;;;5049093;28;20025;-59
2022/12/09 10:49:32;;;;;;;32.95;18.20;;;;;;;;;;5045405;28;20036;-59
2022/12/09 10:51:57;;;;;;;33.47;16.63;;;;;;;;;;5043658;28;20398;-57
2022/12/09 10:54:31;;;;;;;35.35;18.60;;;;;;;;;;5051009;28;20028;-58
2022/12/09 10:57:00;;;;;;;34.72;17.83;;;;;;;;;;5045230;28;20466;-61
2022/12/09 10:59:28;;;;;;;37.55;18.67;;;;;;;;;;5043860;28;20380;-60
2022/12/09 11:01:58;;;;;;;30.58;17.00;;;;;;;;;;5048153;28;20037;-58
2022/12/09 11:04:32;;;;;;;33.55;18.45;;;;;;;;;;5041891;28;20041;-58
2022/12/09 11:07:01;;;;;;;31.25;17.65;;;;;;;;;;5050886;28;20750;-58
2022/12/09 11:09:28;;;;;;;33.67;17.10;;;;;;;;;;5041797;28;20032;-59
2022/12/09 11:11:54;;;;;;;36.17;18.92;;;;;;;;;;5050126;28;20029;-59
2022/12/09 11:14:24;;;;;;;36.58;18.77;;;;;;;;;;5047754;28;20081;-58
2022/12/09 11:16:51;;;;;;;38.55;19.70;;;;;;;;;;5042533;28;20098;-58
2022/12/09 11:19:16;;;;;;;35.95;19.08;;;;;;;;;;5050913;28;20033;-60
2022/12/09 11:21:42;;;;;;;38.53;19.52;;;;;;;;;;5045963;28;20021;-59
2022/12/09 11:24:18;;;;;;;36.78;18.42;;;;;;;;;;5047359;28;20040;-59
2022/12/09 11:26:43;;;;;;;33.75;18.17;;;;;;;;;;5042095;28;20090;-59
2022/12/09 11:29:16;;;;;;;38.58;19.13;;;;;;;;;;5041753;28;20033;-59
2022/12/09 11:31:42;;;;;;;37.08;19.02;;;;;;;;;;5047172;28;20056;-60
2022/12/09 11:34:24;;;;;;;34.33;18.23;;;;;;;;;;5049818;28;20100;-59
2022/12/09 11:36:55;;;;;;;41.50;20.98;;;;;;;;;;5040902;28;20612;-58
2022/12/09 11:39:22;;;;;;;37.38;18.98;;;;;;;;;;5049349;28;20118;-59
2022/12/09 11:44:35;;;;;;;37.80;18.63;;;;;;;;;;5048339;28;20045;-59
2022/12/09 11:47:01;;;;;;;37.85;19.25;;;;;;;;;;5046193;28;20039;-58
2022/12/09 11:49:28;;;;;;;37.57;19.27;;;;;;;;;;5046432;28;20064;-59
2022/12/09 11:52:01;;;;;;;37.15;18.45;;;;;;;;;;5046873;28;20166;-58
2022/12/09 11:54:32;;;;;;;33.78;18.63;;;;;;;;;;5049093;28;20036;-60
2022/12/09 11:56:58;;;;;;;38.95;20.65;;;;;;;;;;5045595;28;20051;-58
2022/12/09 11:59:28;;;;;;;36.03;19.05;;;;;;;;;;5050643;28;20395;-58
2022/12/09 12:02:00;;;;;;;39.80;19.38;;;;;;;;;;5042828;28;20025;-59
2022/12/09 12:04:34;;;;;;;35.30;19.48;;;;;;;;;;5045662;28;20051;-58
2022/12/09 12:07:09;;;;;;;33.33;18.10;;;;;;;;;;5049695;28;20043;-59
2022/12/09 12:09:43;;;;;;;34.80;17.98;;;;;;;;;;5043293;28;20028;-57
2022/12/09 12:12:16;;;;;;;36.38;19.95;;;;;;;;;;5044473;28;20021;-57
2022/12/09 12:14:42;;;;;;;32.83;18.15;;;;;;;;;;5052398;28;20272;-58
2022/12/09 12:17:17;;;;;;;35.13;18.80;;;;;;;;;;5050074;28;20025;-59
2022/12/09 12:19:44;;;;;;;38.53;18.95;;;;;;;;;;5051260;28;20032;-60
2022/12/09 12:22:21;;;;;;;39.08;19.05;;;;;;;;;;5046025;28;20473;-59
2022/12/09 12:24:52;;;;;;;35.38;19.05;;;;;;;;;;5043586;28;20039;-59
2022/12/09 12:27:20;;;;;;;40.53;20.67;;;;;;;;;;5056933;28;20422;-60
2022/12/09 12:29:49;;;;;;;44.13;22.13;;;;;;;;;;5049075;28;20113;-60
2022/12/09 12:32:23;;;;;;;39.67;20.85;;;;;;;;;;5050268;28;20402;-60
2022/12/09 12:34:48;;;;;;;37.95;19.85;;;;;;;;;;5050879;28;20067;-60
2022/12/09 12:37:14;;;;;;;40.60;20.63;;;;;;;;;;5044921;28;20115;-59
2022/12/09 12:39:42;;;;;;;39.15;20.20;;;;;;;;;;5051798;28;20033;-58
2022/12/09 12:42:26;;;;;;;37.67;20.23;;;;;;;;;;5042503;28;20017;-59
2022/12/09 12:47:59;;;;;;;37.72;19.02;;;;;;;;;;5050456;28;20127;-59
2022/12/09 12:50:24;;;;;;;49.05;19.20;;;;;;;;;;5045109;28;20028;-58
2022/12/09 12:52:52;;;;;;;41.92;19.63;;;;;;;;;;5049086;28;20094;-59
2022/12/09 12:55:20;;;;;;;47.40;20.65;;;;;;;;;;5054427;28;20094;-59
2022/12/09 12:58:00;;;;;;;39.38;21.17;;;;;;;;;;5044886;28;20029;-59
2022/12/09 13:00:32;;;;;;;40.35;20.33;;;;;;;;;;5048327;28;20056;-61
2022/12/09 13:02:57;;;;;;;48.65;22.38;;;;;;;;;;5051814;28;20089;-58
2022/12/09 13:05:24;;;;;;;44.35;21.15;;;;;;;;;;5046389;28;20036;-60
2022/12/09 13:07:49;;;;;;;;;;;;;;;;;;5054401;28;20401;-58
2022/12/09 13:10:41;;;;;;;38.05;18.13;;;;;;;;;;5046546;28;20363;-59
2022/12/09 13:13:16;;;;;;;43.08;20.60;;;;;;;;;;5044679;28;20081;-59
2022/12/09 13:15:44;;;;;;;46.08;21.25;;;;;;;;;;5051132;28;20024;-58
2022/12/09 13:18:18;;;;;;;41.90;21.50;;;;;;;;;;5046004;28;20052;-59
2022/12/09 13:20:50;;;;;;;49.83;23.20;;;;;;;;;;5045721;28;20029;-58
2022/12/09 13:23:35;;;;;;;47.90;22.15;;;;;;;;;;5052778;28;20031;-59
2022/12/09 13:26:10;;;;;;;44.33;20.88;;;;;;;;;;5046087;28;20058;-59
2022/12/09 13:28:44;;;;;;;51.70;23.92;;;;;;;;;;5052558;28;20753;-60
2022/12/09 13:31:09;;;;;;;49.58;22.90;;;;;;;;;;5058941;28;20106;-60
2022/12/09 13:33:44;;;;;;;46.70;21.88;;;;;;;;;;5052261;28;20060;-58
2022/12/09 13:36:17;;;;;;;49.58;22.25;;;;;;;;;;5053228;28;20143;-59
2022/12/09 13:38:42;;;;;;;47.38;21.83;;;;;;;;;;5064535;28;20118;-59
2022/12/09 13:41:26;;;;;;;47.08;22.50;;;;;;;;;;5051250;28;20029;-59
2022/12/09 13:43:56;;;;;;;49.92;23.17;;;;;;;;;;5050143;28;20033;-59
2022/12/09 13:46:23;;;;;;;55.45;24.60;;;;;;;;;;5055824;28;20140;-58
2022/12/09 13:48:50;;;;;;;55.70;24.63;;;;;;;;;;5052752;28;20036;-59
2022/12/09 13:51:15;;;;;;;47.60;22.98;;;;;;;;;;5053585;28;20091;-59
2022/12/09 13:53:50;;;;;;;55.50;24.15;;;;;;;;;;5049717;28;20070;-59
2022/12/09 13:56:15;;;;;;;57.25;23.85;;;;;;;;;;5053440;28;20166;-59
2022/12/09 13:58:46;;;;;;;53.45;26.10;;;;;;;;;;5047397;28;20107;-58
2022/12/09 14:01:15;;;;;;;52.42;24.67;;;;;;;;;;5044848;28;20055;-58
2022/12/09 14:03:43;;;;;;;56.72;24.00;;;;;;;;;;5056181;28;20035;-58
2022/12/09 14:06:27;;;;;;;54.17;23.73;;;;;;;;;;5047185;28;20044;-57
2022/12/09 14:08:54;;;;;;;59.92;25.75;;;;;;;;;;5051264;28;20048;-58
2022/12/09 14:11:38;;;;;;;61.00;26.25;;;;;;;;;;5058330;28;20032;-58
2022/12/09 14:14:21;;;;;;;54.55;25.23;;;;;;;;;;5044874;28;20029;-59
2022/12/09 14:16:47;;;;;;;60.55;26.27;;;;;;;;;;5054459;28;20131;-59
2022/12/09 14:19:24;;;;;;;64.40;26.05;;;;;;;;;;5047716;28;20107;-59
2022/12/09 14:22:15;;;;;;;60.92;26.77;;;;;;;;;;5049364;28;20543;-58
2022/12/09 14:24:41;;;;;;;61.03;26.30;;;;;;;;;;5036742;28;20471;-59
2022/12/09 14:27:12;;;;;;;59.85;27.20;;;;;;;;;;5042208;28;20050;-57
2022/12/09 14:29:48;;;;;;;61.75;26.83;;;;;;;;;;5046147;28;20357;-57
2022/12/09 14:32:32;;;;;;;65.45;27.13;;;;;;;;;;5049897;28;20048;-58
2022/12/09 14:35:09;;;;;;;58.70;25.92;;;;;;;;;;5040600;28;20054;-58